createdAt,value
2023-01-15T00:02:06.945Z,10.90
2023-01-15T00:04:33.677Z,10.90
2023-01-15T00:07:00.333Z,10.90
2023-01-15T00:09:26.986Z,10.90
2023-01-15T00:11:53.596Z,10.90
2023-01-15T00:14:20.318Z,10.80
2023-01-15T00:16:51.179Z,10.80
2023-01-15T00:19:17.857Z,10.80
2023-01-15T00:21:44.510Z,10.80
2023-01-15T00:24:29.575Z,10.80
2023-01-15T00:27:15.139Z,10.80
2023-01-15T00:29:41.848Z,10.80
2023-01-15T00:32:08.921Z,10.80
2023-01-15T00:34:36.175Z,10.80
2023-01-15T00:37:02.848Z,10.80
2023-01-15T00:39:34.453Z,10.80
2023-01-15T00:42:01.211Z,10.80
2023-01-15T00:44:27.934Z,10.80
2023-01-15T00:46:54.613Z,10.80
2023-01-15T00:49:21.668Z,10.80
2023-01-15T00:51:49.930Z,10.80
2023-01-15T00:54:17.189Z,10.80
2023-01-15T00:56:44.039Z,10.80
2023-01-15T00:59:10.715Z,10.80
2023-01-15T01:01:37.805Z,10.80
2023-01-15T01:04:05.488Z,10.80
2023-01-15T01:06:32.205Z,10.80
2023-01-15T01:08:59.446Z,10.80
2023-01-15T01:11:26.979Z,10.80
2023-01-15T01:13:54.994Z,10.80
2023-01-15T01:16:37.469Z,10.80
2023-01-15T01:19:08.921Z,10.80
2023-01-15T01:21:38.229Z,10.80
2023-01-15T01:24:05.595Z,10.80
2023-01-15T01:26:32.962Z,10.80
2023-01-15T01:29:00.225Z,10.80
2023-01-15T01:31:27.054Z,10.80
2023-01-15T01:33:57.021Z,10.70
2023-01-15T01:36:38.451Z,10.70
2023-01-15T01:39:06.892Z,10.70
2023-01-15T01:41:34.319Z,10.70
2023-01-15T01:44:08.843Z,10.60
2023-01-15T01:46:36.359Z,10.60
2023-01-15T01:49:13.634Z,10.70
2023-01-15T01:51:54.505Z,10.60
2023-01-15T01:54:25.246Z,10.60
2023-01-15T01:56:52.378Z,10.60
2023-01-15T01:59:22.323Z,10.60
2023-01-15T02:01:49.816Z,10.60
2023-01-15T02:04:21.830Z,10.50
2023-01-15T02:06:48.565Z,10.50
2023-01-15T02:09:15.472Z,10.50
2023-01-15T02:11:42.540Z,10.50
2023-01-15T02:14:38.199Z,10.50
2023-01-15T02:17:16.369Z,10.50
2023-01-15T02:20:01.804Z,10.50
2023-01-15T02:23:10.835Z,10.40
2023-01-15T02:25:56.293Z,10.50
2023-01-15T02:28:25.157Z,10.40
2023-01-15T02:31:13.788Z,10.40
2023-01-15T02:33:48.697Z,10.40
2023-01-15T02:36:20.185Z,10.40
2023-01-15T02:38:52.711Z,10.40
2023-01-15T02:41:25.004Z,10.40
2023-01-15T02:43:55.697Z,10.40
2023-01-15T02:46:30.729Z,10.40
2023-01-15T02:49:00.428Z,10.30
2023-01-15T02:51:51.224Z,10.30
2023-01-15T02:54:23.378Z,10.30
2023-01-15T02:56:52.501Z,10.30
2023-01-15T02:59:24.837Z,10.30
2023-01-15T03:01:59.470Z,10.30
2023-01-15T03:04:37.294Z,10.30
2023-01-15T03:07:14.739Z,10.30
2023-01-15T03:09:43.199Z,10.30
2023-01-15T03:12:21.654Z,10.30
2023-01-15T03:15:10.856Z,10.30
2023-01-15T03:17:50.595Z,10.20
2023-01-15T03:20:22.946Z,10.20
2023-01-15T03:22:56.055Z,10.20
2023-01-15T03:25:30.623Z,10.20
2023-01-15T03:28:01.052Z,10.30
2023-01-15T03:30:29.204Z,10.20
2023-01-15T03:32:56.000Z,10.20
2023-01-15T03:35:48.719Z,10.20
2023-01-15T03:38:29.277Z,10.20
2023-01-15T03:41:00.103Z,10.20
2023-01-15T03:43:58.153Z,10.20
2023-01-15T03:46:46.432Z,10.20
2023-01-15T03:49:20.442Z,10.20
2023-01-15T03:52:00.623Z,10.20
2023-01-15T03:54:36.030Z,10.20
2023-01-15T03:57:21.080Z,10.10
2023-01-15T04:00:01.094Z,10.10
2023-01-15T04:02:31.359Z,10.10
2023-01-15T04:04:59.375Z,10.10
2023-01-15T04:07:27.511Z,10.10
2023-01-15T04:09:54.388Z,10.10
2023-01-15T04:12:21.308Z,10.10
2023-01-15T04:14:48.499Z,10.10
2023-01-15T04:17:21.300Z,10.10
2023-01-15T04:19:47.965Z,10.10
2023-01-15T04:22:14.602Z,10.10
2023-01-15T04:24:41.230Z,10.10
2023-01-15T04:27:07.954Z,10.10
2023-01-15T04:29:34.665Z,10.10
2023-01-15T04:32:02.010Z,10.00
2023-01-15T04:34:29.470Z,10.00
2023-01-15T04:36:57.188Z,10.00
2023-01-15T04:39:23.939Z,10.00
2023-01-15T04:42:09.274Z,10.10
2023-01-15T04:44:37.276Z,10.00
2023-01-15T04:47:04.106Z,10.00
2023-01-15T04:49:30.911Z,10.00
2023-01-15T04:51:57.704Z,10.00
2023-01-15T04:54:24.341Z,10.00
2023-01-15T04:56:53.298Z,10.00
2023-01-15T04:59:22.415Z,10.00
2023-01-15T05:02:02.669Z,10.00
2023-01-15T05:04:30.698Z,9.90
2023-01-15T05:06:57.488Z,10.00
2023-01-15T05:09:24.208Z,9.90
2023-01-15T05:11:50.841Z,9.90
2023-01-15T05:14:17.586Z,9.90
2023-01-15T05:16:44.313Z,9.90
2023-01-15T05:19:11.067Z,9.90
2023-01-15T05:21:42.347Z,9.90
2023-01-15T05:24:14.714Z,9.90
2023-01-15T05:26:42.115Z,9.90
2023-01-15T05:29:10.155Z,9.90
2023-01-15T05:31:36.871Z,9.90
2023-01-15T05:34:03.585Z,9.90
2023-01-15T05:36:32.324Z,9.90
2023-01-15T05:39:01.822Z,9.90
2023-01-15T05:41:48.594Z,9.90
2023-01-15T05:44:23.993Z,9.90
2023-01-15T05:46:52.611Z,9.90
2023-01-15T05:49:22.863Z,9.90
2023-01-15T05:51:50.938Z,9.80
2023-01-15T05:54:20.213Z,9.80
2023-01-15T05:56:48.489Z,9.80
2023-01-15T05:59:16.985Z,9.90
2023-01-15T06:01:43.838Z,9.80
2023-01-15T06:04:13.976Z,9.80
2023-01-15T06:06:42.011Z,9.90
2023-01-15T06:09:08.814Z,9.90
2023-01-15T06:11:35.749Z,9.80
2023-01-15T06:14:02.389Z,9.80
2023-01-15T06:16:29.011Z,9.80
2023-01-15T06:18:55.872Z,9.80
2023-01-15T06:21:22.692Z,9.80
2023-01-15T06:23:49.374Z,9.90
2023-01-15T06:26:18.087Z,9.90
2023-01-15T06:28:45.984Z,9.90
2023-01-15T06:31:18.257Z,9.90
2023-01-15T06:33:45.266Z,9.90
2023-01-15T06:36:18.928Z,9.90
2023-01-15T06:38:45.708Z,9.90
2023-01-15T06:41:34.036Z,9.90
2023-01-15T06:44:20.538Z,9.90
2023-01-15T06:47:08.245Z,9.90
2023-01-15T06:49:36.513Z,9.90
2023-01-15T06:52:04.283Z,9.90
2023-01-15T06:54:30.971Z,9.90
2023-01-15T06:56:57.758Z,9.90
2023-01-15T06:59:24.390Z,9.90
2023-01-15T07:01:51.077Z,9.90
2023-01-15T07:04:17.841Z,9.90
2023-01-15T07:06:44.558Z,9.90
2023-01-15T07:09:11.782Z,9.90
2023-01-15T07:11:49.536Z,9.90
2023-01-15T07:14:22.057Z,9.90
2023-01-15T07:16:49.482Z,9.90
2023-01-15T07:19:16.619Z,9.90
2023-01-15T07:21:43.615Z,9.90
2023-01-15T07:24:11.465Z,9.90
2023-01-15T07:26:38.413Z,9.90
2023-01-15T07:29:05.668Z,9.90
2023-01-15T07:31:33.041Z,9.90
2023-01-15T07:34:00.113Z,9.90
2023-01-15T07:36:27.164Z,9.90
2023-01-15T07:38:54.089Z,9.90
2023-01-15T07:41:39.913Z,9.90
2023-01-15T07:44:30.333Z,9.90
2023-01-15T07:47:15.881Z,9.90
2023-01-15T07:49:46.103Z,9.90
2023-01-15T07:52:21.424Z,9.80
2023-01-15T07:54:49.876Z,9.80
2023-01-15T07:57:19.845Z,9.80
2023-01-15T07:59:46.624Z,9.80
2023-01-15T08:02:13.459Z,9.80
2023-01-15T08:04:40.731Z,9.80
2023-01-15T08:07:08.357Z,9.80
2023-01-15T08:09:35.676Z,9.80
2023-01-15T08:12:23.085Z,9.80
2023-01-15T08:15:08.631Z,9.80
2023-01-15T08:17:37.079Z,9.80
2023-01-15T08:20:06.539Z,9.80
2023-01-15T08:22:33.461Z,9.80
2023-01-15T08:25:00.199Z,9.80
2023-01-15T08:27:27.115Z,9.80
2023-01-15T08:29:53.788Z,9.70
2023-01-15T08:32:20.449Z,9.70
2023-01-15T08:34:47.067Z,9.70
2023-01-15T08:37:13.852Z,9.70
2023-01-15T08:39:40.664Z,9.70
2023-01-15T08:42:08.224Z,9.70
2023-01-15T08:44:34.983Z,9.70
2023-01-15T08:47:01.623Z,9.60
2023-01-15T08:49:28.376Z,9.60
2023-01-15T08:51:55.043Z,9.60
2023-01-15T08:54:24.792Z,9.60
2023-01-15T08:56:51.845Z,9.60
2023-01-15T08:59:18.812Z,9.60
2023-01-15T09:01:45.643Z,9.60
2023-01-15T09:04:17.443Z,9.60
2023-01-15T09:06:44.782Z,9.60
2023-01-15T09:09:12.089Z,9.60
2023-01-15T09:11:40.755Z,9.60
2023-01-15T09:14:08.478Z,9.60
2023-01-15T09:16:55.870Z,9.60
2023-01-15T09:19:22.577Z,9.60
2023-01-15T09:21:49.211Z,9.60
2023-01-15T09:24:15.791Z,9.60
2023-01-15T09:26:42.421Z,9.70
2023-01-15T09:29:10.497Z,9.70
2023-01-15T09:31:37.238Z,9.70
2023-01-15T09:34:04.004Z,9.80
2023-01-15T09:36:33.526Z,9.70
2023-01-15T09:39:01.660Z,9.80
2023-01-15T09:42:05.289Z,9.80
2023-01-15T09:45:14.415Z,9.90
2023-01-15T09:48:07.009Z,10.10
2023-01-15T09:50:48.450Z,10.20
2023-01-15T09:53:36.846Z,10.40
2023-01-15T09:56:05.170Z,10.60
2023-01-15T09:58:38.608Z,10.80
2023-01-15T10:01:06.342Z,11.10
2023-01-15T10:03:47.674Z,11.30
2023-01-15T10:06:28.786Z,11.60
2023-01-15T10:09:09.930Z,11.80
2023-01-15T10:12:01.571Z,12.00
2023-01-15T10:15:01.380Z,12.20
2023-01-15T10:17:35.374Z,12.30
2023-01-15T10:20:02.500Z,12.40
2023-01-15T10:22:59.493Z,12.40
2023-01-15T10:25:31.771Z,12.50
2023-01-15T10:28:08.679Z,12.40
2023-01-15T10:30:54.931Z,12.40
2023-01-15T10:34:03.916Z,12.40
2023-01-15T10:36:39.475Z,12.30
2023-01-15T10:39:32.317Z,12.30
2023-01-15T10:42:32.342Z,12.20
2023-01-15T10:45:26.398Z,12.10
2023-01-15T10:48:01.190Z,12.00
2023-01-15T10:50:28.096Z,11.90
2023-01-15T10:53:02.264Z,11.80
2023-01-15T10:55:36.135Z,11.70
2023-01-15T10:58:13.552Z,11.70
2023-01-15T11:00:41.433Z,11.60
2023-01-15T11:03:16.451Z,11.50
2023-01-15T11:05:46.500Z,11.50
2023-01-15T11:09:08.720Z,11.40
2023-01-15T11:11:58.932Z,11.40
2023-01-15T11:14:54.304Z,11.30
2023-01-15T11:17:42.012Z,11.30
2023-01-15T11:20:22.653Z,11.20
2023-01-15T11:22:49.797Z,11.20
2023-01-15T11:25:29.801Z,11.20
2023-01-15T11:27:57.530Z,11.30
2023-01-15T11:30:33.368Z,11.20
2023-01-15T11:33:04.673Z,11.10
2023-01-15T11:35:33.957Z,11.10
2023-01-15T11:38:12.759Z,11.10
2023-01-15T11:40:39.494Z,11.10
2023-01-15T11:43:39.713Z,11.10
2023-01-15T11:46:25.229Z,11.00
2023-01-15T11:49:10.617Z,11.00
2023-01-15T11:51:43.827Z,11.00
2023-01-15T11:54:14.825Z,11.00
2023-01-15T11:56:43.778Z,11.00
2023-01-15T11:59:18.752Z,11.00
2023-01-15T12:01:59.475Z,11.00
2023-01-15T12:04:45.451Z,11.00
2023-01-15T12:07:14.068Z,11.00
2023-01-15T12:10:06.514Z,11.00
2023-01-15T12:13:05.957Z,10.90
2023-01-15T12:15:51.462Z,10.90
2023-01-15T12:18:28.746Z,10.90
2023-01-15T12:21:21.558Z,10.90
2023-01-15T12:23:54.458Z,10.90
2023-01-15T12:26:33.349Z,10.90
2023-01-15T12:29:11.893Z,10.90
2023-01-15T12:31:47.402Z,10.80
2023-01-15T12:34:42.805Z,10.80
2023-01-15T12:37:20.668Z,10.80
2023-01-15T12:39:57.065Z,10.80
2023-01-15T12:42:44.050Z,10.80
2023-01-15T12:45:18.010Z,10.80
2023-01-15T12:48:03.190Z,10.80
2023-01-15T12:50:38.446Z,10.70
2023-01-15T12:53:37.822Z,10.80
2023-01-15T12:56:29.063Z,10.70
2023-01-15T12:59:06.182Z,10.70
2023-01-15T13:02:04.900Z,10.70
2023-01-15T13:05:15.180Z,10.70
2023-01-15T13:07:43.578Z,10.70
2023-01-15T13:10:18.547Z,10.70
2023-01-15T13:12:45.501Z,10.80
2023-01-15T13:15:19.953Z,10.80
2023-01-15T13:18:23.013Z,10.80
2023-01-15T13:20:54.983Z,10.80
2023-01-15T13:23:43.172Z,10.80
2023-01-15T13:26:20.870Z,10.70
2023-01-15T13:29:06.123Z,10.90
2023-01-15T13:31:54.511Z,10.70
2023-01-15T13:34:30.470Z,10.70
2023-01-15T13:37:04.263Z,10.70
2023-01-15T13:39:41.755Z,10.70
2023-01-15T13:42:34.415Z,10.70
2023-01-15T13:45:13.362Z,10.70
2023-01-15T13:47:45.665Z,10.70
2023-01-15T13:50:27.904Z,10.70
2023-01-15T13:53:07.665Z,10.70
2023-01-15T13:55:41.852Z,10.60
2023-01-15T13:58:27.485Z,10.60
2023-01-15T14:01:23.584Z,10.70
2023-01-15T14:04:12.395Z,10.60
2023-01-15T14:06:42.394Z,10.60
2023-01-15T14:09:32.079Z,10.60
2023-01-15T14:12:07.651Z,10.60
2023-01-15T14:14:55.722Z,10.60
2023-01-15T14:17:36.393Z,10.50
2023-01-15T14:20:33.736Z,10.50
2023-01-15T14:23:21.413Z,10.40
2023-01-15T14:26:02.518Z,10.40
2023-01-15T14:29:03.044Z,10.30
2023-01-15T14:31:45.984Z,10.30
2023-01-15T14:34:17.085Z,10.20
2023-01-15T14:37:04.688Z,10.20
2023-01-15T14:39:34.236Z,10.20
2023-01-15T14:42:25.140Z,10.20
2023-01-15T14:45:28.203Z,10.10
2023-01-15T14:48:03.975Z,10.10
2023-01-15T14:50:38.612Z,10.10
2023-01-15T14:53:11.163Z,10.10
2023-01-15T14:55:56.141Z,10.10
2023-01-15T14:58:48.605Z,10.10
2023-01-15T15:01:21.538Z,10.10
2023-01-15T15:04:02.864Z,10.10
2023-01-15T15:06:30.335Z,10.10
2023-01-15T15:09:04.657Z,10.10
2023-01-15T15:12:07.673Z,10.10
2023-01-15T15:14:39.450Z,10.10
2023-01-15T15:17:18.907Z,10.10
2023-01-15T15:19:50.270Z,10.00
2023-01-15T15:22:19.476Z,10.00
2023-01-15T15:24:50.367Z,10.00
2023-01-15T15:27:23.489Z,10.00
2023-01-15T15:29:50.462Z,10.00
2023-01-15T15:32:23.175Z,10.00
2023-01-15T15:34:52.802Z,10.00
2023-01-15T15:37:26.498Z,10.00
2023-01-15T15:40:04.977Z,10.00
2023-01-15T15:42:58.127Z,10.00
2023-01-15T15:45:46.144Z,10.00
2023-01-15T15:48:42.856Z,10.00
2023-01-15T15:51:32.793Z,10.00
2023-01-15T15:54:29.525Z,10.00
2023-01-15T15:57:06.850Z,9.90
2023-01-15T15:59:51.727Z,9.90
2023-01-15T16:02:36.011Z,9.90
2023-01-15T16:05:19.256Z,9.80
2023-01-15T16:07:46.609Z,9.80
2023-01-15T16:10:25.421Z,9.80
2023-01-15T16:12:54.678Z,9.70
2023-01-15T16:15:39.804Z,9.70
2023-01-15T16:18:15.645Z,9.70
2023-01-15T16:20:42.482Z,9.60
2023-01-15T16:23:24.396Z,9.60
2023-01-15T16:26:05.818Z,9.60
2023-01-15T16:28:45.929Z,9.60
2023-01-15T16:31:14.931Z,9.50
2023-01-15T16:33:41.725Z,9.50
2023-01-15T16:36:08.888Z,9.50
2023-01-15T16:38:42.512Z,9.50
2023-01-15T16:41:42.058Z,9.30
2023-01-15T16:44:44.079Z,9.40
2023-01-15T16:47:23.346Z,9.40
2023-01-15T16:49:50.080Z,9.40
2023-01-15T16:52:35.435Z,9.40
2023-01-15T16:55:02.133Z,9.50
2023-01-15T16:57:32.301Z,9.50
2023-01-15T17:00:02.251Z,9.50
2023-01-15T17:02:40.704Z,9.50
2023-01-15T17:05:36.928Z,9.50
2023-01-15T17:08:03.895Z,9.50
2023-01-15T17:10:31.506Z,9.50
2023-01-15T17:12:58.644Z,9.50
2023-01-15T17:15:25.395Z,9.50
2023-01-15T17:17:54.097Z,9.50
2023-01-15T17:20:27.383Z,9.50
2023-01-15T17:22:54.864Z,9.50
2023-01-15T17:25:24.654Z,9.50
2023-01-15T17:27:51.476Z,9.50
2023-01-15T17:30:18.333Z,9.60
2023-01-15T17:32:45.265Z,9.60
2023-01-15T17:35:32.967Z,9.60
2023-01-15T17:37:59.694Z,9.60
2023-01-15T17:40:26.948Z,9.60
2023-01-15T17:42:59.143Z,9.60
2023-01-15T17:45:29.240Z,9.60
2023-01-15T17:47:56.385Z,9.60
2023-01-15T17:50:23.582Z,9.60
2023-01-15T17:52:50.982Z,9.60
2023-01-15T17:55:39.056Z,9.60
2023-01-15T17:58:25.037Z,9.60
2023-01-15T18:01:12.519Z,9.60
2023-01-15T18:04:04.522Z,9.60
2023-01-15T18:06:32.825Z,9.60
2023-01-15T18:09:02.653Z,9.60
2023-01-15T18:11:29.463Z,9.60
2023-01-15T18:13:56.998Z,9.60
2023-01-15T18:16:24.270Z,9.60
2023-01-15T18:18:53.756Z,9.60
2023-01-15T18:21:21.128Z,9.60
2023-01-15T18:23:47.796Z,9.60
2023-01-15T18:26:14.712Z,9.60
2023-01-15T18:28:41.373Z,9.60
2023-01-15T18:31:08.281Z,9.60
2023-01-15T18:33:35.198Z,9.60
2023-01-15T18:36:07.452Z,9.60
2023-01-15T18:38:39.154Z,9.60
2023-01-15T18:41:34.380Z,9.60
2023-01-15T18:44:21.064Z,9.60
2023-01-15T18:46:52.545Z,9.60
2023-01-15T18:49:20.188Z,9.60
2023-01-15T18:52:05.754Z,9.60
2023-01-15T18:54:32.427Z,9.60
2023-01-15T18:56:59.076Z,9.60
2023-01-15T18:59:25.687Z,9.50
2023-01-15T19:01:52.548Z,9.60
2023-01-15T19:04:20.432Z,9.60
2023-01-15T19:06:47.592Z,9.60
2023-01-15T19:09:16.579Z,9.60
2023-01-15T19:11:44.263Z,9.60
2023-01-15T19:14:29.466Z,9.60
2023-01-15T19:17:14.859Z,9.60
2023-01-15T19:19:44.477Z,9.60
2023-01-15T19:22:30.166Z,9.60
2023-01-15T19:24:56.957Z,9.60
2023-01-15T19:27:23.638Z,9.60
2023-01-15T19:29:50.652Z,9.60
2023-01-15T19:32:17.421Z,9.60
2023-01-15T19:34:44.055Z,9.60
2023-01-15T19:37:10.740Z,9.60
2023-01-15T19:39:37.529Z,9.60
2023-01-15T19:42:22.714Z,9.60
2023-01-15T19:45:08.117Z,9.60
2023-01-15T19:47:55.664Z,9.60
2023-01-15T19:50:33.532Z,9.60
2023-01-15T19:53:00.979Z,9.60
2023-01-15T19:55:30.140Z,9.60
2023-01-15T19:58:02.393Z,9.60
2023-01-15T20:00:31.077Z,9.60
2023-01-15T20:02:58.681Z,9.60
2023-01-15T20:05:28.251Z,9.60
2023-01-15T20:07:55.427Z,9.60
2023-01-15T20:10:24.055Z,9.60
2023-01-15T20:13:10.073Z,9.60
2023-01-15T20:15:38.835Z,9.50
2023-01-15T20:18:05.937Z,9.50
2023-01-15T20:20:32.750Z,9.50
2023-01-15T20:22:59.453Z,9.50
2023-01-15T20:25:30.389Z,9.50
2023-01-15T20:27:59.865Z,9.50
2023-01-15T20:30:27.833Z,9.50
2023-01-15T20:32:56.547Z,9.50
2023-01-15T20:35:26.291Z,9.50
2023-01-15T20:37:52.951Z,9.50
2023-01-15T20:40:25.271Z,9.50
2023-01-15T20:43:11.988Z,9.50
2023-01-15T20:45:39.379Z,9.50
2023-01-15T20:48:12.252Z,9.50
2023-01-15T20:51:03.042Z,9.50
2023-01-15T20:53:34.156Z,9.50
2023-01-15T20:56:02.489Z,9.50
2023-01-15T20:58:29.372Z,9.50
2023-01-15T21:01:03.739Z,9.50
2023-01-15T21:03:30.480Z,9.50
2023-01-15T21:05:58.248Z,9.50
2023-01-15T21:08:25.088Z,9.50
2023-01-15T21:10:53.693Z,9.50
2023-01-15T21:13:22.861Z,9.50
2023-01-15T21:15:58.092Z,9.60
2023-01-15T21:18:26.157Z,9.50
2023-01-15T21:20:53.020Z,9.50
2023-01-15T21:23:19.776Z,9.50
2023-01-15T21:25:46.466Z,9.50
2023-01-15T21:28:13.175Z,9.50
2023-01-15T21:30:41.262Z,9.50
2023-01-15T21:33:08.945Z,9.50
2023-01-15T21:35:39.895Z,9.50
2023-01-15T21:38:10.127Z,9.50
2023-01-15T21:40:37.756Z,9.50
2023-01-15T21:43:24.209Z,9.50
2023-01-15T21:45:51.489Z,9.60
2023-01-15T21:48:18.545Z,9.60
2023-01-15T21:50:45.364Z,9.60
2023-01-15T21:53:12.085Z,9.60
2023-01-15T21:55:38.740Z,9.60
2023-01-15T21:58:05.420Z,9.60
2023-01-15T22:00:32.138Z,9.60
2023-01-15T22:02:58.878Z,9.60
2023-01-15T22:05:25.582Z,9.60
2023-01-15T22:07:52.270Z,9.60
2023-01-15T22:10:18.995Z,9.60
2023-01-15T22:12:45.612Z,9.60
2023-01-15T22:15:12.514Z,9.60
2023-01-15T22:17:39.241Z,9.60
2023-01-15T22:20:07.118Z,9.60
2023-01-15T22:22:36.245Z,9.60
2023-01-15T22:25:04.976Z,9.60
2023-01-15T22:27:34.344Z,9.60
2023-01-15T22:30:01.273Z,9.60
2023-01-15T22:32:27.982Z,9.60
2023-01-15T22:34:54.626Z,9.60
2023-01-15T22:37:21.323Z,9.60
2023-01-15T22:39:49.240Z,9.60
2023-01-15T22:42:24.882Z,9.60
2023-01-15T22:44:52.004Z,9.60
2023-01-15T22:47:19.647Z,9.60
2023-01-15T22:49:46.490Z,9.60
2023-01-15T22:52:13.611Z,9.60
2023-01-15T22:54:44.499Z,9.60
2023-01-15T22:57:12.441Z,9.60
2023-01-15T22:59:39.334Z,9.60
2023-01-15T23:02:06.107Z,9.60
2023-01-15T23:04:33.085Z,9.60
2023-01-15T23:06:59.902Z,9.60
2023-01-15T23:09:26.622Z,9.60
2023-01-15T23:11:53.289Z,9.60
2023-01-15T23:14:21.363Z,9.60
2023-01-15T23:16:48.414Z,9.60
2023-01-15T23:19:16.095Z,9.60
2023-01-15T23:21:42.933Z,9.60
2023-01-15T23:24:10.753Z,9.70
2023-01-15T23:26:37.939Z,9.70
2023-01-15T23:29:05.059Z,9.70
2023-01-15T23:31:31.790Z,9.70
2023-01-15T23:33:58.609Z,9.70
2023-01-15T23:36:25.316Z,9.70
2023-01-15T23:38:52.049Z,9.80
2023-01-15T23:41:44.276Z,9.70
2023-01-15T23:44:35.282Z,9.70
2023-01-15T23:47:01.985Z,9.70
2023-01-15T23:49:28.796Z,9.70
2023-01-15T23:51:56.163Z,9.70
2023-01-15T23:54:25.339Z,9.60
2023-01-15T23:56:51.997Z,9.60
2023-01-15T23:59:18.784Z,9.60
